createdAt,value
2018-08-22T00:01:59.347Z,8.50
2018-08-22T00:04:28.069Z,7.53
2018-08-22T00:06:56.804Z,8.57
2018-08-22T00:09:25.578Z,7.83
2018-08-22T00:11:54.226Z,8.17
2018-08-22T00:14:23.768Z,9.17
2018-08-22T00:16:52.424Z,8.80
2018-08-22T00:19:21.156Z,8.97
2018-08-22T00:21:49.728Z,8.17
2018-08-22T00:24:18.352Z,8.57
2018-08-22T00:26:47.322Z,7.90
2018-08-22T00:29:16.181Z,7.80
2018-08-22T00:31:45.808Z,9.10
2018-08-22T00:34:14.388Z,9.40
2018-08-22T00:36:43.126Z,7.77
2018-08-22T00:39:12.940Z,8.07
2018-08-22T00:41:41.564Z,8.47
2018-08-22T00:44:10.292Z,8.67
2018-08-22T00:46:38.889Z,10.10
2018-08-22T00:49:07.633Z,9.70
2018-08-22T00:51:36.357Z,8.43
2018-08-22T00:54:04.957Z,8.70
2018-08-22T00:56:33.531Z,8.77
2018-08-22T00:59:02.196Z,9.20
2018-08-22T01:01:30.786Z,9.97
2018-08-22T01:03:59.886Z,9.57
2018-08-22T01:06:28.584Z,9.17
2018-08-22T01:08:58.185Z,9.73
2018-08-22T01:11:26.976Z,9.60
2018-08-22T01:13:55.946Z,8.60
2018-08-22T01:16:24.676Z,8.43
2018-08-22T01:18:53.597Z,8.73
2018-08-22T01:21:22.195Z,7.80
2018-08-22T01:23:51.097Z,8.23
2018-08-22T01:26:19.796Z,7.27
2018-08-22T01:28:48.358Z,7.00
2018-08-22T01:31:17.015Z,6.70
2018-08-22T01:33:45.623Z,8.43
2018-08-22T01:36:14.449Z,9.13
2018-08-22T01:38:44.338Z,8.97
2018-08-22T01:41:13.017Z,8.50
2018-08-22T01:43:41.796Z,8.77
2018-08-22T01:46:10.505Z,9.30
2018-08-22T01:48:40.000Z,8.97
2018-08-22T01:51:08.637Z,8.60
2018-08-22T01:53:37.205Z,9.83
2018-08-22T01:56:06.012Z,10.13
2018-08-22T01:58:34.653Z,9.40
2018-08-22T02:01:03.352Z,9.30
2018-08-22T02:03:32.232Z,8.90
2018-08-22T02:06:01.088Z,10.70
2018-08-22T02:08:29.717Z,11.10
2018-08-22T02:10:58.423Z,10.43
2018-08-22T02:13:27.121Z,9.70
2018-08-22T02:15:56.129Z,8.70
2018-08-22T02:18:24.709Z,9.60
2018-08-22T02:20:53.304Z,8.43
2018-08-22T02:23:22.492Z,7.93
2018-08-22T02:25:51.178Z,6.80
2018-08-22T02:28:19.842Z,7.47
2018-08-22T02:30:48.702Z,7.00
2018-08-22T02:33:17.452Z,7.50
2018-08-22T02:35:46.953Z,8.37
2018-08-22T02:38:20.696Z,8.30
2018-08-22T02:40:49.265Z,8.23
2018-08-22T02:43:18.600Z,7.87
2018-08-22T02:45:47.656Z,8.13
2018-08-22T02:48:16.784Z,8.13
2018-08-22T02:50:45.361Z,8.53
2018-08-22T02:53:14.036Z,9.30
2018-08-22T02:55:43.256Z,8.50
2018-08-22T02:58:12.960Z,10.27
2018-08-22T03:00:41.648Z,9.27
2018-08-22T03:03:10.256Z,9.50
2018-08-22T03:05:38.831Z,9.27
2018-08-22T03:08:07.665Z,9.40
2018-08-22T03:10:36.292Z,8.33
2018-08-22T03:13:04.892Z,6.97
2018-08-22T03:15:34.282Z,8.00
2018-08-22T03:18:03.575Z,7.43
2018-08-22T03:20:32.254Z,7.33
2018-08-22T03:23:00.934Z,7.57
2018-08-22T03:25:29.469Z,7.13
2018-08-22T03:27:58.197Z,7.23
2018-08-22T03:30:26.833Z,7.13
2018-08-22T03:32:56.589Z,6.90
2018-08-22T03:35:25.270Z,5.80
2018-08-22T03:37:53.873Z,6.33
2018-08-22T03:40:22.528Z,6.57
2018-08-22T03:42:51.090Z,7.63
2018-08-22T03:45:19.759Z,9.70
2018-08-22T03:47:48.320Z,9.23
2018-08-22T03:50:16.966Z,9.53
2018-08-22T03:52:45.669Z,9.03
2018-08-22T03:55:14.350Z,10.83
2018-08-22T03:57:42.973Z,10.97
2018-08-22T04:00:12.318Z,9.57
2018-08-22T04:02:41.370Z,9.13
2018-08-22T04:05:10.084Z,10.40
2018-08-22T04:07:38.669Z,9.20
2018-08-22T04:10:07.260Z,8.27
2018-08-22T04:12:36.108Z,8.37
2018-08-22T04:15:04.832Z,8.50
2018-08-22T04:17:37.603Z,7.43
2018-08-22T04:20:06.899Z,6.90
2018-08-22T04:22:37.325Z,7.07
2018-08-22T04:25:06.157Z,7.10
2018-08-22T04:27:34.814Z,7.10
2018-08-22T04:30:03.601Z,7.40
2018-08-22T04:32:32.211Z,6.57
2018-08-22T04:35:00.872Z,6.43
2018-08-22T04:37:29.588Z,6.80
2018-08-22T04:39:58.453Z,8.23
2018-08-22T04:42:27.630Z,7.37
2018-08-22T04:44:56.447Z,7.87
2018-08-22T04:47:25.133Z,9.77
2018-08-22T04:49:53.849Z,11.80
2018-08-22T04:52:22.544Z,13.73
2018-08-22T04:54:51.410Z,15.70
2018-08-22T04:57:21.390Z,18.10
2018-08-22T04:59:49.968Z,15.23
2018-08-22T05:02:18.567Z,13.93
2018-08-22T05:04:51.116Z,11.87
2018-08-22T05:07:19.715Z,11.07
2018-08-22T05:09:48.526Z,11.47
2018-08-22T05:12:17.277Z,10.40
2018-08-22T05:14:45.965Z,10.10
2018-08-22T05:17:14.788Z,9.90
2018-08-22T05:19:43.446Z,12.07
2018-08-22T05:22:12.376Z,10.77
2018-08-22T05:24:43.136Z,11.30
2018-08-22T05:27:11.698Z,11.00
2018-08-22T05:29:40.261Z,12.17
2018-08-22T05:32:08.978Z,12.50
2018-08-22T05:34:37.565Z,12.67
2018-08-22T05:37:06.314Z,12.60
2018-08-22T05:39:36.033Z,12.13
2018-08-22T05:42:04.780Z,11.07
2018-08-22T05:44:33.381Z,11.80
2018-08-22T05:47:02.117Z,11.10
2018-08-22T05:49:30.765Z,11.03
2018-08-22T05:51:59.419Z,11.07
2018-08-22T05:54:28.129Z,10.77
2018-08-22T05:56:56.905Z,10.87
2018-08-22T05:59:26.583Z,10.53
2018-08-22T06:01:55.189Z,9.20
2018-08-22T06:04:23.869Z,9.30
2018-08-22T06:06:52.615Z,8.20
2018-08-22T06:09:21.353Z,7.20
2018-08-22T06:11:49.975Z,7.13
2018-08-22T06:14:18.572Z,7.07
2018-08-22T06:16:47.328Z,6.80
2018-08-22T06:19:16.016Z,6.03
2018-08-22T06:21:44.676Z,6.37
2018-08-22T06:24:13.349Z,6.03
2018-08-22T06:26:41.995Z,5.57
2018-08-22T06:29:10.577Z,5.40
2018-08-22T06:31:39.302Z,5.03
2018-08-22T06:34:07.955Z,4.90
2018-08-22T06:36:36.557Z,4.37
2018-08-22T06:39:08.423Z,4.87
2018-08-22T06:41:37.005Z,4.63
2018-08-22T06:44:05.667Z,4.73
2018-08-22T06:46:34.285Z,4.77
2018-08-22T06:49:02.889Z,4.63
2018-08-22T06:51:31.450Z,4.77
2018-08-22T06:54:00.122Z,4.23
2018-08-22T06:56:28.717Z,4.30
2018-08-22T06:58:57.375Z,4.87
2018-08-22T07:01:26.015Z,4.73
2018-08-22T07:03:54.604Z,3.93
2018-08-22T07:06:23.185Z,4.23
2018-08-22T07:08:51.877Z,4.37
2018-08-22T07:11:20.545Z,4.00
2018-08-22T07:13:49.148Z,4.40
2018-08-22T07:16:17.753Z,4.10
2018-08-22T07:18:46.550Z,4.70
2018-08-22T07:21:15.150Z,4.50
2018-08-22T07:23:43.845Z,4.10
2018-08-22T07:26:12.498Z,4.20
2018-08-22T07:28:41.428Z,4.57
2018-08-22T07:31:09.988Z,4.70
2018-08-22T07:33:40.681Z,4.70
2018-08-22T07:36:09.381Z,3.73
2018-08-22T07:38:38.097Z,3.67
2018-08-22T07:41:06.688Z,3.60
2018-08-22T07:43:35.377Z,3.87
2018-08-22T07:46:04.060Z,3.40
2018-08-22T07:48:32.650Z,4.00
2018-08-22T07:51:01.383Z,3.83
2018-08-22T07:53:30.076Z,3.80
2018-08-22T07:55:58.698Z,3.93
2018-08-22T07:58:27.332Z,4.07
2018-08-22T08:00:56.228Z,3.90
2018-08-22T08:03:24.920Z,3.40
2018-08-22T08:05:53.553Z,2.67
2018-08-22T08:08:22.198Z,2.40
2018-08-22T08:10:51.499Z,3.13
2018-08-22T08:13:29.797Z,3.07
2018-08-22T08:15:59.405Z,3.00
2018-08-22T08:18:28.228Z,2.77
2018-08-22T08:20:56.772Z,2.10
2018-08-22T08:23:25.369Z,2.40
2018-08-22T08:25:53.970Z,2.50
2018-08-22T08:28:23.280Z,2.73
2018-08-22T08:30:52.266Z,2.30
2018-08-22T08:33:21.108Z,2.00
2018-08-22T08:35:49.749Z,1.97
2018-08-22T08:38:18.720Z,1.90
2018-08-22T08:40:48.140Z,1.97
2018-08-22T08:43:17.331Z,2.00
2018-08-22T08:45:46.024Z,1.83
2018-08-22T08:48:14.768Z,1.70
2018-08-22T08:50:43.494Z,2.30
2018-08-22T08:53:12.126Z,2.20
2018-08-22T08:55:41.838Z,2.20
2018-08-22T08:58:10.402Z,2.10
2018-08-22T09:00:39.014Z,2.60
2018-08-22T09:03:07.597Z,2.30
2018-08-22T09:05:36.180Z,2.10
2018-08-22T09:08:04.917Z,2.37
2018-08-22T09:10:33.733Z,1.80
2018-08-22T09:13:02.490Z,2.43
2018-08-22T09:15:31.145Z,2.30
2018-08-22T09:17:59.965Z,2.10
2018-08-22T09:20:28.963Z,2.10
2018-08-22T09:22:57.605Z,2.20
2018-08-22T09:25:26.306Z,2.33
2018-08-22T09:27:54.988Z,2.43
2018-08-22T09:30:23.907Z,2.17
2018-08-22T09:32:52.500Z,1.90
2018-08-22T09:35:21.264Z,2.57
2018-08-22T09:37:50.995Z,2.40
2018-08-22T09:40:19.670Z,3.43
2018-08-22T09:42:48.558Z,2.03
2018-08-22T09:45:17.163Z,2.10
2018-08-22T09:47:45.862Z,1.97
2018-08-22T09:50:14.633Z,2.00
2018-08-22T09:52:43.380Z,2.03
2018-08-22T09:55:12.651Z,2.30
2018-08-22T09:57:41.457Z,2.20
2018-08-22T10:00:15.352Z,2.30
2018-08-22T10:02:44.969Z,2.30
2018-08-22T10:05:13.560Z,2.37
2018-08-22T10:07:42.201Z,2.17
2018-08-22T10:10:11.018Z,2.20
2018-08-22T10:12:39.711Z,2.27
2018-08-22T10:15:08.384Z,2.50
2018-08-22T10:17:37.086Z,2.30
2018-08-22T10:20:06.381Z,2.10
2018-08-22T10:22:35.168Z,2.80
2018-08-22T10:25:03.917Z,2.00
2018-08-22T10:27:32.565Z,2.20
2018-08-22T10:30:01.282Z,2.10
2018-08-22T10:32:29.851Z,2.33
2018-08-22T10:34:58.620Z,2.20
2018-08-22T10:37:27.442Z,2.23
2018-08-22T10:39:56.257Z,2.10
2018-08-22T10:42:24.907Z,2.17
2018-08-22T10:44:54.660Z,2.00
2018-08-22T10:47:23.301Z,2.40
2018-08-22T10:49:53.047Z,2.07
2018-08-22T10:52:21.705Z,1.70
2018-08-22T10:54:50.247Z,2.20
2018-08-22T10:57:19.047Z,1.93
2018-08-22T10:59:48.296Z,2.97
2018-08-22T11:02:17.016Z,2.20
2018-08-22T11:04:45.665Z,2.73
2018-08-22T11:07:14.369Z,2.40
2018-08-22T11:09:43.055Z,2.20
2018-08-22T11:12:11.655Z,2.40
2018-08-22T11:14:40.426Z,2.57
2018-08-22T11:17:09.115Z,2.20
2018-08-22T11:19:37.811Z,2.13
2018-08-22T11:22:17.816Z,2.10
2018-08-22T11:24:57.745Z,2.27
2018-08-22T11:27:37.553Z,2.30
2018-08-22T11:30:17.416Z,2.10
2018-08-22T11:32:57.321Z,1.97
2018-08-22T11:35:24.949Z,2.10
2018-08-22T11:37:53.529Z,2.20
2018-08-22T11:40:22.656Z,2.20
2018-08-22T11:42:51.421Z,2.45
2018-08-22T11:45:20.921Z,2.00
2018-08-22T11:47:49.742Z,2.45
2018-08-22T11:50:18.309Z,2.10
2018-08-22T11:52:46.945Z,2.22
2018-08-22T11:55:15.646Z,2.55
2018-08-22T11:57:44.914Z,2.10
2018-08-22T12:00:14.500Z,2.00
2018-08-22T12:02:43.263Z,2.10
2018-08-22T12:05:11.961Z,2.10
2018-08-22T12:07:41.482Z,2.00
2018-08-22T12:10:10.171Z,2.30
2018-08-22T12:12:38.961Z,2.00
2018-08-22T12:15:07.733Z,2.00
2018-08-22T12:17:37.121Z,2.02
2018-08-22T12:20:07.233Z,2.00
2018-08-22T12:22:36.101Z,2.10
2018-08-22T12:25:04.865Z,2.00
2018-08-22T12:27:33.539Z,2.00
2018-08-22T12:30:02.273Z,1.80
2018-08-22T12:32:30.963Z,2.00
2018-08-22T12:35:00.460Z,2.02
2018-08-22T12:37:29.116Z,2.00
2018-08-22T12:39:57.964Z,1.62
2018-08-22T12:42:26.855Z,2.05
2018-08-22T12:44:55.505Z,1.90
2018-08-22T12:47:25.254Z,2.05
2018-08-22T12:49:53.975Z,1.80
2018-08-22T12:52:23.645Z,2.30
2018-08-22T12:54:52.323Z,1.95
2018-08-22T12:57:22.807Z,2.02
2018-08-22T12:59:51.504Z,2.00
2018-08-22T13:02:20.113Z,2.10
2018-08-22T13:04:48.781Z,2.10
2018-08-22T13:07:17.478Z,2.10
2018-08-22T13:09:46.680Z,1.90
2018-08-22T13:12:15.485Z,2.05
2018-08-22T13:14:44.100Z,2.35
2018-08-22T13:17:12.986Z,2.30
2018-08-22T13:19:41.581Z,2.08
2018-08-22T13:22:11.388Z,2.42
2018-08-22T13:24:40.135Z,2.15
2018-08-22T13:27:08.781Z,2.10
2018-08-22T13:29:37.376Z,2.12
2018-08-22T13:32:06.771Z,2.15
2018-08-22T13:34:36.377Z,2.27
2018-08-22T13:37:05.778Z,2.45
2018-08-22T13:39:34.484Z,2.20
2018-08-22T13:42:05.963Z,2.10
2018-08-22T13:44:34.713Z,2.10
2018-08-22T13:47:03.410Z,2.30
2018-08-22T13:49:32.082Z,2.00
2018-08-22T13:52:00.806Z,2.00
2018-08-22T13:54:29.686Z,2.20
2018-08-22T13:56:58.410Z,2.12
2018-08-22T13:59:27.050Z,2.02
2018-08-22T14:01:55.795Z,2.22
2018-08-22T14:04:25.386Z,2.50
2018-08-22T14:06:54.065Z,2.50
2018-08-22T14:09:22.796Z,2.30
2018-08-22T14:11:51.464Z,2.42
2018-08-22T14:14:20.246Z,2.20
2018-08-22T14:16:49.081Z,2.52
2018-08-22T14:19:17.736Z,2.20
2018-08-22T14:21:46.633Z,2.50
2018-08-22T14:24:15.335Z,2.35
2018-08-22T14:26:44.143Z,2.58
2018-08-22T14:29:12.705Z,2.37
2018-08-22T14:31:41.589Z,2.62
2018-08-22T14:34:11.545Z,2.60
2018-08-22T14:36:40.101Z,2.37
2018-08-22T14:39:11.095Z,1.95
2018-08-22T14:41:39.694Z,2.58
2018-08-22T14:44:08.492Z,2.55
2018-08-22T14:46:37.633Z,2.40
2018-08-22T14:49:06.533Z,2.08
2018-08-22T14:51:36.456Z,2.02
2018-08-22T14:54:05.165Z,2.72
2018-08-22T14:56:33.868Z,2.20
2018-08-22T14:59:02.689Z,2.22
2018-08-22T15:01:31.401Z,2.40
2018-08-22T15:04:00.060Z,2.40
2018-08-22T15:06:30.721Z,2.52
2018-08-22T15:09:05.728Z,2.50
2018-08-22T15:11:36.005Z,2.60
2018-08-22T15:14:05.773Z,2.25
2018-08-22T15:16:34.445Z,2.30
2018-08-22T15:19:03.077Z,2.40
2018-08-22T15:21:31.768Z,2.45
2018-08-22T15:24:00.501Z,2.50
2018-08-22T15:26:29.327Z,2.65
2018-08-22T15:28:58.082Z,2.45
2018-08-22T15:31:26.721Z,2.45
2018-08-22T15:33:55.674Z,2.87
2018-08-22T15:36:24.539Z,2.65
2018-08-22T15:38:55.383Z,2.60
2018-08-22T15:41:24.014Z,2.58
2018-08-22T15:43:53.306Z,3.10
2018-08-22T15:46:22.032Z,2.40
2018-08-22T15:48:52.084Z,2.30
2018-08-22T15:51:20.748Z,2.65
2018-08-22T15:54:14.128Z,2.45
2018-08-22T15:56:43.097Z,2.40
2018-08-22T15:59:12.594Z,2.62
2018-08-22T16:01:41.346Z,2.60
2018-08-22T16:04:10.558Z,2.25
2018-08-22T16:06:39.420Z,2.72
2018-08-22T16:09:16.113Z,2.55
2018-08-22T16:11:45.809Z,2.58
2018-08-22T16:14:15.079Z,2.58
2018-08-22T16:16:43.924Z,3.17
2018-08-22T16:19:13.286Z,2.60
2018-08-22T16:21:42.473Z,2.30
2018-08-22T16:24:11.395Z,2.40
2018-08-22T16:26:40.616Z,2.83
2018-08-22T16:29:09.377Z,2.60
2018-08-22T16:31:44.422Z,3.00
2018-08-22T16:34:13.763Z,2.67
2018-08-22T16:36:42.733Z,2.60
2018-08-22T16:39:11.732Z,3.17
2018-08-22T16:41:40.390Z,3.15
2018-08-22T16:44:10.241Z,3.15
2018-08-22T16:46:38.891Z,2.75
2018-08-22T16:49:08.993Z,3.10
2018-08-22T16:51:37.768Z,3.25
2018-08-22T16:54:10.306Z,3.15
2018-08-22T16:56:39.411Z,3.80
2018-08-22T16:59:10.293Z,3.80
2018-08-22T17:01:40.701Z,3.30
2018-08-22T17:04:09.324Z,2.80
2018-08-22T17:06:38.053Z,2.63
2018-08-22T17:09:09.421Z,2.77
2018-08-22T17:11:38.135Z,4.33
2018-08-22T17:14:06.779Z,3.30
2018-08-22T17:16:35.469Z,3.20
2018-08-22T17:19:04.313Z,3.10
2018-08-22T17:21:33.102Z,3.10
2018-08-22T17:24:01.910Z,3.00
2018-08-22T17:26:31.352Z,2.80
2018-08-22T17:29:00.874Z,3.50
2018-08-22T17:31:30.501Z,3.07
2018-08-22T17:34:01.542Z,3.10
2018-08-22T17:36:30.122Z,3.47
2018-08-22T17:38:59.890Z,3.80
2018-08-22T17:41:30.049Z,3.90
2018-08-22T17:44:04.305Z,3.90
2018-08-22T17:46:37.159Z,3.60
2018-08-22T17:49:05.973Z,3.60
2018-08-22T17:51:44.435Z,3.87
2018-08-22T17:54:13.133Z,3.63
2018-08-22T17:56:42.565Z,3.77
2018-08-22T17:59:11.373Z,4.53
2018-08-22T18:01:40.084Z,4.20
2018-08-22T18:04:08.824Z,4.33
2018-08-22T18:06:37.513Z,4.07
2018-08-22T18:09:06.517Z,4.70
2018-08-22T18:11:35.093Z,5.90
2018-08-22T18:14:03.826Z,5.43
2018-08-22T18:16:32.481Z,4.03
2018-08-22T18:19:02.106Z,3.90
2018-08-22T18:21:38.883Z,3.60
2018-08-22T18:24:08.593Z,3.67
2018-08-22T18:26:37.254Z,4.00
2018-08-22T18:29:05.936Z,4.00
2018-08-22T18:31:35.835Z,3.93
2018-08-22T18:34:05.029Z,3.70
2018-08-22T18:36:33.670Z,3.77
2018-08-22T18:39:07.044Z,3.90
2018-08-22T18:41:35.980Z,3.80
2018-08-22T18:44:04.776Z,4.40
2018-08-22T18:46:33.501Z,4.50
2018-08-22T18:49:02.880Z,8.10
2018-08-22T18:51:33.753Z,7.03
2018-08-22T18:54:04.173Z,7.33
2018-08-22T18:56:32.784Z,6.80
2018-08-22T18:59:12.552Z,5.23
2018-08-22T19:01:41.492Z,4.57
2018-08-22T19:04:10.296Z,5.53
2018-08-22T19:06:39.090Z,5.97
2018-08-22T19:09:08.168Z,6.87
2018-08-22T19:11:36.831Z,8.37
2018-08-22T19:14:06.591Z,7.17
2018-08-22T19:16:35.398Z,5.60
2018-08-22T19:19:04.250Z,5.20
2018-08-22T19:21:33.033Z,5.00
2018-08-22T19:24:05.617Z,5.20
2018-08-22T19:26:34.403Z,4.87
2018-08-22T19:29:05.365Z,4.90
2018-08-22T19:31:34.305Z,5.13
2018-08-22T19:34:03.025Z,4.00
2018-08-22T19:36:31.749Z,4.60
2018-08-22T19:39:00.480Z,4.73
2018-08-22T19:41:34.144Z,4.43
2018-08-22T19:44:04.061Z,4.67
2018-08-22T19:46:32.793Z,4.70
2018-08-22T19:49:01.835Z,4.90
2018-08-22T19:51:30.487Z,5.00
2018-08-22T19:54:04.731Z,4.40
2018-08-22T19:56:33.637Z,4.43
2018-08-22T19:59:02.921Z,4.47
2018-08-22T20:01:33.396Z,4.10
2018-08-22T20:04:01.990Z,4.40
2018-08-22T20:06:31.650Z,4.60
2018-08-22T20:09:01.091Z,4.40
2018-08-22T20:11:32.049Z,4.37
2018-08-22T20:14:02.494Z,5.03
2018-08-22T20:16:31.237Z,4.40
2018-08-22T20:19:01.964Z,4.27
2018-08-22T20:21:32.812Z,4.10
2018-08-22T20:24:02.361Z,4.00
2018-08-22T20:26:31.633Z,4.10
2018-08-22T20:29:01.686Z,4.10
2018-08-22T20:31:30.599Z,4.20
2018-08-22T20:34:21.159Z,4.37
2018-08-22T20:36:50.437Z,4.33
2018-08-22T20:39:19.329Z,4.00
2018-08-22T20:41:49.627Z,3.67
2018-08-22T20:44:20.850Z,4.40
2018-08-22T20:46:50.009Z,4.10
2018-08-22T20:49:19.732Z,3.47
2018-08-22T20:51:48.733Z,3.67
2018-08-22T20:54:22.596Z,3.93
2018-08-22T20:56:56.483Z,4.17
2018-08-22T20:59:25.264Z,3.53
2018-08-22T21:01:56.345Z,3.73
2018-08-22T21:04:25.117Z,3.97
2018-08-22T21:06:53.754Z,4.00
2018-08-22T21:09:22.354Z,4.30
2018-08-22T21:11:51.614Z,4.03
2018-08-22T21:14:20.303Z,4.37
2018-08-22T21:16:49.265Z,3.90
2018-08-22T21:19:18.005Z,3.90
2018-08-22T21:21:46.612Z,4.23
2018-08-22T21:24:15.304Z,3.90
2018-08-22T21:26:46.132Z,4.50
2018-08-22T21:29:14.997Z,4.47
2018-08-22T21:31:43.762Z,4.17
2018-08-22T21:34:17.541Z,4.40
2018-08-22T21:36:46.733Z,4.00
2018-08-22T21:39:20.597Z,3.70
2018-08-22T21:41:50.695Z,4.27
2018-08-22T21:44:20.649Z,4.13
2018-08-22T21:47:11.481Z,4.23
2018-08-22T21:49:40.237Z,4.27
2018-08-22T21:52:08.873Z,4.67
2018-08-22T21:54:38.107Z,4.60
2018-08-22T21:57:06.785Z,4.67
2018-08-22T21:59:35.460Z,4.23
2018-08-22T22:02:11.094Z,4.67
2018-08-22T22:04:41.098Z,4.50
2018-08-22T22:07:10.973Z,4.77
2018-08-22T22:09:40.424Z,4.40
2018-08-22T22:12:14.249Z,4.60
2018-08-22T22:14:44.440Z,4.67
2018-08-22T22:17:13.193Z,4.90
2018-08-22T22:19:41.779Z,4.70
2018-08-22T22:22:10.326Z,4.13
2018-08-22T22:24:49.486Z,5.00
2018-08-22T22:27:18.168Z,5.00
2018-08-22T22:29:47.002Z,5.20
2018-08-22T22:32:15.745Z,4.97
2018-08-22T22:34:44.337Z,4.77
2018-08-22T22:37:13.337Z,4.73
2018-08-22T22:39:43.041Z,5.40
2018-08-22T22:42:17.391Z,5.53
2018-08-22T22:44:50.259Z,5.13
2018-08-22T22:47:24.295Z,5.43
2018-08-22T22:49:53.258Z,4.67
2018-08-22T22:52:30.230Z,5.80
2018-08-22T22:55:04.454Z,4.93
2018-08-22T22:57:34.799Z,5.90
2018-08-22T23:00:04.405Z,5.70
2018-08-22T23:02:33.791Z,5.87
2018-08-22T23:05:02.785Z,6.63
2018-08-22T23:07:39.501Z,6.30
2018-08-22T23:10:12.065Z,5.87
2018-08-22T23:12:43.051Z,6.10
2018-08-22T23:15:14.781Z,6.00
2018-08-22T23:17:43.929Z,6.10
2018-08-22T23:20:45.216Z,5.90
2018-08-22T23:23:26.885Z,6.03
2018-08-22T23:25:58.701Z,6.33
2018-08-22T23:28:27.410Z,6.70
2018-08-22T23:30:55.989Z,6.43
2018-08-22T23:33:24.749Z,6.67
2018-08-22T23:35:54.506Z,6.07
2018-08-22T23:38:28.458Z,6.47
2018-08-22T23:40:57.350Z,6.90
2018-08-22T23:43:26.477Z,6.30
2018-08-22T23:45:57.986Z,6.77
2018-08-22T23:48:31.708Z,6.67
2018-08-22T23:51:03.817Z,6.03
2018-08-22T23:53:38.467Z,6.87
2018-08-22T23:56:16.483Z,6.70
2018-08-22T23:58:46.133Z,7.20
